sensor_id;sensor_type;location;lat;lon;timestamp;P1;durP1;ratioP1;P2;durP2;ratioP2
78426;SDS011;67722;50.204;8.570;2023-05-10T00:02:21;1.50;;;0.53;;
78426;SDS011;67722;50.204;8.570;2023-05-10T00:04:47;1.50;;;0.30;;
78426;SDS011;67722;50.204;8.570;2023-05-10T00:07:13;1.00;;;0.27;;
78426;SDS011;67722;50.204;8.570;2023-05-10T00:09:38;0.85;;;0.30;;
78426;SDS011;67722;50.204;8.570;2023-05-10T00:12:03;0.70;;;0.27;;
78426;SDS011;67722;50.204;8.570;2023-05-10T00:14:29;0.47;;;0.10;;
78426;SDS011;67722;50.204;8.570;2023-05-10T00:16:55;0.52;;;0.20;;
78426;SDS011;67722;50.204;8.570;2023-05-10T00:19:20;0.83;;;0.13;;
78426;SDS011;67722;50.204;8.570;2023-05-10T00:21:45;0.40;;;0.10;;
78426;SDS011;67722;50.204;8.570;2023-05-10T00:24:11;0.85;;;0.10;;
78426;SDS011;67722;50.204;8.570;2023-05-10T00:26:36;1.05;;;0.15;;
78426;SDS011;67722;50.204;8.570;2023-05-10T00:29:02;2.42;;;0.00;;
78426;SDS011;67722;50.204;8.570;2023-05-10T00:31:27;0.40;;;0.13;;
78426;SDS011;67722;50.204;8.570;2023-05-10T00:33:52;0.13;;;0.03;;
78426;SDS011;67722;50.204;8.570;2023-05-10T00:36:18;0.30;;;0.10;;
78426;SDS011;67722;50.204;8.570;2023-05-10T00:38:43;0.13;;;0.00;;
78426;SDS011;67722;50.204;8.570;2023-05-10T00:41:08;1.83;;;0.10;;
78426;SDS011;67722;50.204;8.570;2023-05-10T00:43:34;1.35;;;0.10;;
78426;SDS011;67722;50.204;8.570;2023-05-10T00:45:59;0.80;;;0.00;;
78426;SDS011;67722;50.204;8.570;2023-05-10T00:48:25;0.95;;;0.20;;
78426;SDS011;67722;50.204;8.570;2023-05-10T00:50:50;0.50;;;0.13;;
78426;SDS011;67722;50.204;8.570;2023-05-10T00:53:16;0.80;;;0.10;;
78426;SDS011;67722;50.204;8.570;2023-05-10T00:55:43;0.55;;;0.00;;
78426;SDS011;67722;50.204;8.570;2023-05-10T00:58:08;0.20;;;0.00;;
78426;SDS011;67722;50.204;8.570;2023-05-10T01:00:34;0.10;;;0.00;;
78426;SDS011;67722;50.204;8.570;2023-05-10T01:02:59;0.95;;;0.10;;
78426;SDS011;67722;50.204;8.570;2023-05-10T01:05:25;0.57;;;0.10;;
78426;SDS011;67722;50.204;8.570;2023-05-10T01:07:52;0.30;;;0.05;;
78426;SDS011;67722;50.204;8.570;2023-05-10T01:13:41;0.13;;;0.00;;
78426;SDS011;67722;50.204;8.570;2023-05-10T01:16:07;1.65;;;0.00;;
78426;SDS011;67722;50.204;8.570;2023-05-10T01:18:33;0.10;;;0.00;;
78426;SDS011;67722;50.204;8.570;2023-05-10T01:23:44;0.55;;;0.10;;
78426;SDS011;67722;50.204;8.570;2023-05-10T01:34:47;0.20;;;0.10;;
78426;SDS011;67722;50.204;8.570;2023-05-10T01:37:39;0.28;;;0.20;;
78426;SDS011;67722;50.204;8.570;2023-05-10T01:42:53;1.20;;;0.10;;
78426;SDS011;67722;50.204;8.570;2023-05-10T01:48:24;0.20;;;0.05;;
78426;SDS011;67722;50.204;8.570;2023-05-10T01:50:52;0.20;;;0.10;;
78426;SDS011;67722;50.204;8.570;2023-05-10T01:53:18;1.58;;;0.00;;
78426;SDS011;67722;50.204;8.570;2023-05-10T01:55:46;0.43;;;0.10;;
78426;SDS011;67722;50.204;8.570;2023-05-10T01:58:14;2.58;;;0.10;;
78426;SDS011;67722;50.204;8.570;2023-05-10T02:00:44;0.47;;;0.10;;
78426;SDS011;67722;50.204;8.570;2023-05-10T02:03:10;0.95;;;0.10;;
78426;SDS011;67722;50.204;8.570;2023-05-10T02:05:37;1.67;;;0.10;;
78426;SDS011;67722;50.204;8.570;2023-05-10T02:08:05;0.30;;;0.17;;
78426;SDS011;67722;50.204;8.570;2023-05-10T02:10:32;1.40;;;0.30;;
78426;SDS011;67722;50.204;8.570;2023-05-10T02:12:58;0.40;;;0.10;;
78426;SDS011;67722;50.204;8.570;2023-05-10T02:15:25;0.73;;;0.20;;
78426;SDS011;67722;50.204;8.570;2023-05-10T02:17:51;0.30;;;0.10;;
78426;SDS011;67722;50.204;8.570;2023-05-10T02:20:18;2.47;;;0.30;;
78426;SDS011;67722;50.204;8.570;2023-05-10T02:22:44;0.30;;;0.17;;
78426;SDS011;67722;50.204;8.570;2023-05-10T02:25:10;0.52;;;0.10;;
78426;SDS011;67722;50.204;8.570;2023-05-10T02:27:36;0.60;;;0.22;;
78426;SDS011;67722;50.204;8.570;2023-05-10T02:30:02;0.50;;;0.20;;
78426;SDS011;67722;50.204;8.570;2023-05-10T02:32:28;2.17;;;0.20;;
78426;SDS011;67722;50.204;8.570;2023-05-10T02:34:54;1.83;;;0.20;;
78426;SDS011;67722;50.204;8.570;2023-05-10T02:37:20;1.35;;;0.10;;
78426;SDS011;67722;50.204;8.570;2023-05-10T02:39:46;3.03;;;0.30;;
78426;SDS011;67722;50.204;8.570;2023-05-10T02:42:13;0.40;;;0.10;;
78426;SDS011;67722;50.204;8.570;2023-05-10T02:44:41;0.57;;;0.10;;
78426;SDS011;67722;50.204;8.570;2023-05-10T02:47:08;2.35;;;0.20;;
78426;SDS011;67722;50.204;8.570;2023-05-10T02:49:33;0.50;;;0.20;;
78426;SDS011;67722;50.204;8.570;2023-05-10T02:52:00;0.43;;;0.15;;
78426;SDS011;67722;50.204;8.570;2023-05-10T02:54:30;1.35;;;0.20;;
78426;SDS011;67722;50.204;8.570;2023-05-10T02:56:57;0.30;;;0.10;;
78426;SDS011;67722;50.204;8.570;2023-05-10T02:59:25;1.25;;;0.20;;
78426;SDS011;67722;50.204;8.570;2023-05-10T03:01:50;2.87;;;0.13;;
78426;SDS011;67722;50.204;8.570;2023-05-10T03:04:16;0.63;;;0.33;;
78426;SDS011;67722;50.204;8.570;2023-05-10T03:06:41;0.30;;;0.20;;
78426;SDS011;67722;50.204;8.570;2023-05-10T03:09:06;1.98;;;0.20;;
78426;SDS011;67722;50.204;8.570;2023-05-10T03:16:46;2.63;;;0.38;;
78426;SDS011;67722;50.204;8.570;2023-05-10T03:21:41;4.30;;;0.50;;
78426;SDS011;67722;50.204;8.570;2023-05-10T03:24:10;0.45;;;0.22;;
78426;SDS011;67722;50.204;8.570;2023-05-10T03:26:37;0.68;;;0.40;;
78426;SDS011;67722;50.204;8.570;2023-05-10T03:29:04;1.48;;;0.40;;
78426;SDS011;67722;50.204;8.570;2023-05-10T03:31:30;3.08;;;0.60;;
78426;SDS011;67722;50.204;8.570;2023-05-10T03:33:55;0.88;;;0.40;;
78426;SDS011;67722;50.204;8.570;2023-05-10T03:36:21;0.47;;;0.20;;
78426;SDS011;67722;50.204;8.570;2023-05-10T03:38:46;0.60;;;0.30;;
78426;SDS011;67722;50.204;8.570;2023-05-10T03:41:12;0.70;;;0.57;;
78426;SDS011;67722;50.204;8.570;2023-05-10T03:43:37;1.40;;;0.30;;
78426;SDS011;67722;50.204;8.570;2023-05-10T03:46:03;1.42;;;0.30;;
78426;SDS011;67722;50.204;8.570;2023-05-10T03:48:29;1.40;;;0.32;;
78426;SDS011;67722;50.204;8.570;2023-05-10T03:50:55;0.70;;;0.25;;
78426;SDS011;67722;50.204;8.570;2023-05-10T03:53:20;0.85;;;0.22;;
78426;SDS011;67722;50.204;8.570;2023-05-10T03:55:45;5.85;;;0.30;;
78426;SDS011;67722;50.204;8.570;2023-05-10T03:58:11;0.77;;;0.30;;
78426;SDS011;67722;50.204;8.570;2023-05-10T04:00:37;1.10;;;0.50;;
78426;SDS011;67722;50.204;8.570;2023-05-10T04:03:02;0.77;;;0.50;;
78426;SDS011;67722;50.204;8.570;2023-05-10T04:05:28;1.17;;;0.40;;
78426;SDS011;67722;50.204;8.570;2023-05-10T04:07:54;0.70;;;0.40;;
78426;SDS011;67722;50.204;8.570;2023-05-10T04:10:19;0.60;;;0.30;;
78426;SDS011;67722;50.204;8.570;2023-05-10T04:12:46;0.90;;;0.50;;
78426;SDS011;67722;50.204;8.570;2023-05-10T04:15:11;0.60;;;0.30;;
78426;SDS011;67722;50.204;8.570;2023-05-10T04:17:36;3.08;;;0.50;;
78426;SDS011;67722;50.204;8.570;2023-05-10T04:20:02;3.83;;;0.60;;
78426;SDS011;67722;50.204;8.570;2023-05-10T04:22:28;1.10;;;0.68;;
78426;SDS011;67722;50.204;8.570;2023-05-10T04:24:54;3.95;;;0.50;;
78426;SDS011;67722;50.204;8.570;2023-05-10T04:27:19;2.55;;;0.75;;
78426;SDS011;67722;50.204;8.570;2023-05-10T04:29:44;4.83;;;1.70;;
78426;SDS011;67722;50.204;8.570;2023-05-10T04:32:10;2.07;;;1.00;;
78426;SDS011;67722;50.204;8.570;2023-05-10T04:34:36;1.80;;;1.52;;
78426;SDS011;67722;50.204;8.570;2023-05-10T04:37:01;1.90;;;1.25;;
78426;SDS011;67722;50.204;8.570;2023-05-10T04:39:26;2.33;;;1.20;;
78426;SDS011;67722;50.204;8.570;2023-05-10T04:41:52;2.23;;;1.07;;
78426;SDS011;67722;50.204;8.570;2023-05-10T04:44:17;1.70;;;1.05;;
78426;SDS011;67722;50.204;8.570;2023-05-10T04:46:43;1.57;;;1.10;;
78426;SDS011;67722;50.204;8.570;2023-05-10T04:49:08;1.88;;;1.10;;
78426;SDS011;67722;50.204;8.570;2023-05-10T04:51:33;4.50;;;1.87;;
78426;SDS011;67722;50.204;8.570;2023-05-10T04:53:59;6.17;;;1.83;;
78426;SDS011;67722;50.204;8.570;2023-05-10T04:56:24;3.22;;;1.92;;
78426;SDS011;67722;50.204;8.570;2023-05-10T04:58:50;4.40;;;1.87;;
78426;SDS011;67722;50.204;8.570;2023-05-10T05:01:15;4.30;;;1.87;;
78426;SDS011;67722;50.204;8.570;2023-05-10T05:03:40;2.25;;;1.42;;
78426;SDS011;67722;50.204;8.570;2023-05-10T05:06:06;1.88;;;1.27;;
78426;SDS011;67722;50.204;8.570;2023-05-10T05:08:31;3.90;;;1.30;;
78426;SDS011;67722;50.204;8.570;2023-05-10T05:10:57;2.37;;;0.97;;
78426;SDS011;67722;50.204;8.570;2023-05-10T05:13:22;4.65;;;1.30;;
78426;SDS011;67722;50.204;8.570;2023-05-10T05:15:47;4.88;;;1.25;;
78426;SDS011;67722;50.204;8.570;2023-05-10T05:18:13;2.40;;;1.60;;
78426;SDS011;67722;50.204;8.570;2023-05-10T05:20:38;3.25;;;1.48;;
78426;SDS011;67722;50.204;8.570;2023-05-10T05:23:03;2.38;;;1.58;;
78426;SDS011;67722;50.204;8.570;2023-05-10T05:25:29;3.83;;;1.30;;
78426;SDS011;67722;50.204;8.570;2023-05-10T05:27:54;3.47;;;1.52;;
78426;SDS011;67722;50.204;8.570;2023-05-10T05:30:20;2.80;;;1.87;;
78426;SDS011;67722;50.204;8.570;2023-05-10T05:32:45;4.00;;;1.60;;
78426;SDS011;67722;50.204;8.570;2023-05-10T05:35:12;5.15;;;1.50;;
78426;SDS011;67722;50.204;8.570;2023-05-10T05:37:37;3.92;;;1.70;;
78426;SDS011;67722;50.204;8.570;2023-05-10T05:40:03;2.85;;;1.88;;
78426;SDS011;67722;50.204;8.570;2023-05-10T05:42:29;4.78;;;1.75;;
78426;SDS011;67722;50.204;8.570;2023-05-10T05:44:55;4.93;;;2.05;;
78426;SDS011;67722;50.204;8.570;2023-05-10T05:47:21;2.50;;;1.60;;
78426;SDS011;67722;50.204;8.570;2023-05-10T05:49:46;2.83;;;1.95;;
78426;SDS011;67722;50.204;8.570;2023-05-10T05:52:12;3.20;;;1.58;;
78426;SDS011;67722;50.204;8.570;2023-05-10T05:54:37;3.90;;;3.15;;
78426;SDS011;67722;50.204;8.570;2023-05-10T05:57:02;3.50;;;1.80;;
78426;SDS011;67722;50.204;8.570;2023-05-10T05:59:28;6.87;;;2.30;;
78426;SDS011;67722;50.204;8.570;2023-05-10T06:01:53;2.30;;;1.60;;
78426;SDS011;67722;50.204;8.570;2023-05-10T06:04:18;3.55;;;2.40;;
78426;SDS011;67722;50.204;8.570;2023-05-10T06:06:44;4.83;;;2.10;;
78426;SDS011;67722;50.204;8.570;2023-05-10T06:09:09;4.45;;;2.38;;
78426;SDS011;67722;50.204;8.570;2023-05-10T06:11:35;3.45;;;2.00;;
78426;SDS011;67722;50.204;8.570;2023-05-10T06:14:01;5.88;;;2.17;;
78426;SDS011;67722;50.204;8.570;2023-05-10T06:16:28;3.95;;;2.10;;
78426;SDS011;67722;50.204;8.570;2023-05-10T06:18:53;4.07;;;1.97;;
78426;SDS011;67722;50.204;8.570;2023-05-10T06:21:19;6.47;;;2.20;;
78426;SDS011;67722;50.204;8.570;2023-05-10T06:23:44;3.28;;;2.38;;
78426;SDS011;67722;50.204;8.570;2023-05-10T06:26:10;3.45;;;2.35;;
78426;SDS011;67722;50.204;8.570;2023-05-10T06:28:35;3.80;;;2.30;;
78426;SDS011;67722;50.204;8.570;2023-05-10T06:31:03;3.47;;;2.50;;
78426;SDS011;67722;50.204;8.570;2023-05-10T06:33:28;4.22;;;2.65;;
78426;SDS011;67722;50.204;8.570;2023-05-10T06:35:54;3.15;;;1.85;;
78426;SDS011;67722;50.204;8.570;2023-05-10T06:38:19;2.90;;;2.20;;
78426;SDS011;67722;50.204;8.570;2023-05-10T06:40:44;6.23;;;2.57;;
78426;SDS011;67722;50.204;8.570;2023-05-10T06:43:10;5.40;;;2.00;;
78426;SDS011;67722;50.204;8.570;2023-05-10T06:45:35;4.13;;;2.53;;
78426;SDS011;67722;50.204;8.570;2023-05-10T06:48:01;5.77;;;2.37;;
78426;SDS011;67722;50.204;8.570;2023-05-10T06:50:26;4.18;;;2.42;;
78426;SDS011;67722;50.204;8.570;2023-05-10T06:52:51;3.78;;;2.00;;
78426;SDS011;67722;50.204;8.570;2023-05-10T06:55:17;3.50;;;1.75;;
78426;SDS011;67722;50.204;8.570;2023-05-10T06:57:42;4.07;;;1.90;;
78426;SDS011;67722;50.204;8.570;2023-05-10T07:00:08;4.28;;;1.67;;
78426;SDS011;67722;50.204;8.570;2023-05-10T07:02:34;3.80;;;1.73;;
78426;SDS011;67722;50.204;8.570;2023-05-10T07:05:00;2.50;;;1.83;;
78426;SDS011;67722;50.204;8.570;2023-05-10T07:07:25;3.83;;;2.05;;
78426;SDS011;67722;50.204;8.570;2023-05-10T07:09:50;5.60;;;1.87;;
78426;SDS011;67722;50.204;8.570;2023-05-10T07:12:16;5.37;;;2.07;;
78426;SDS011;67722;50.204;8.570;2023-05-10T07:14:41;3.28;;;2.00;;
78426;SDS011;67722;50.204;8.570;2023-05-10T07:17:07;2.75;;;2.00;;
78426;SDS011;67722;50.204;8.570;2023-05-10T07:19:32;3.37;;;1.60;;
78426;SDS011;67722;50.204;8.570;2023-05-10T07:21:58;5.15;;;1.80;;
78426;SDS011;67722;50.204;8.570;2023-05-10T07:24:23;3.75;;;1.73;;
78426;SDS011;67722;50.204;8.570;2023-05-10T07:26:49;2.63;;;1.80;;
78426;SDS011;67722;50.204;8.570;2023-05-10T07:29:14;3.15;;;1.98;;
78426;SDS011;67722;50.204;8.570;2023-05-10T07:31:40;2.90;;;1.83;;
78426;SDS011;67722;50.204;8.570;2023-05-10T07:34:07;4.63;;;1.65;;
78426;SDS011;67722;50.204;8.570;2023-05-10T07:36:33;2.72;;;1.58;;
78426;SDS011;67722;50.204;8.570;2023-05-10T07:38:58;2.85;;;1.40;;
78426;SDS011;67722;50.204;8.570;2023-05-10T07:41:23;2.10;;;1.50;;
78426;SDS011;67722;50.204;8.570;2023-05-10T07:43:49;2.53;;;1.77;;
78426;SDS011;67722;50.204;8.570;2023-05-10T07:46:14;3.60;;;1.77;;
78426;SDS011;67722;50.204;8.570;2023-05-10T07:48:40;2.75;;;1.63;;
78426;SDS011;67722;50.204;8.570;2023-05-10T07:51:05;3.05;;;1.70;;
78426;SDS011;67722;50.204;8.570;2023-05-10T07:53:32;5.32;;;1.90;;
78426;SDS011;67722;50.204;8.570;2023-05-10T07:55:57;2.40;;;1.67;;
78426;SDS011;67722;50.204;8.570;2023-05-10T07:58:23;6.25;;;2.15;;
78426;SDS011;67722;50.204;8.570;2023-05-10T08:00:49;5.15;;;2.17;;
78426;SDS011;67722;50.204;8.570;2023-05-10T08:03:14;3.55;;;1.70;;
78426;SDS011;67722;50.204;8.570;2023-05-10T08:05:39;4.78;;;1.77;;
78426;SDS011;67722;50.204;8.570;2023-05-10T08:08:05;3.85;;;2.00;;
78426;SDS011;67722;50.204;8.570;2023-05-10T08:10:31;3.25;;;1.70;;
78426;SDS011;67722;50.204;8.570;2023-05-10T08:12:56;2.75;;;1.83;;
78426;SDS011;67722;50.204;8.570;2023-05-10T08:15:23;4.72;;;2.10;;
78426;SDS011;67722;50.204;8.570;2023-05-10T08:17:48;2.50;;;1.55;;
78426;SDS011;67722;50.204;8.570;2023-05-10T08:20:14;6.03;;;1.98;;
78426;SDS011;67722;50.204;8.570;2023-05-10T08:22:41;5.35;;;1.83;;
78426;SDS011;67722;50.204;8.570;2023-05-10T08:25:07;5.35;;;1.40;;
78426;SDS011;67722;50.204;8.570;2023-05-10T08:27:33;5.43;;;1.70;;
78426;SDS011;67722;50.204;8.570;2023-05-10T08:29:58;4.60;;;1.90;;
78426;SDS011;67722;50.204;8.570;2023-05-10T08:32:23;3.53;;;1.80;;
78426;SDS011;67722;50.204;8.570;2023-05-10T08:34:49;2.38;;;1.95;;
78426;SDS011;67722;50.204;8.570;2023-05-10T08:37:14;2.10;;;1.60;;
78426;SDS011;67722;50.204;8.570;2023-05-10T08:39:39;3.43;;;1.80;;
78426;SDS011;67722;50.204;8.570;2023-05-10T08:42:05;2.92;;;1.45;;
78426;SDS011;67722;50.204;8.570;2023-05-10T08:44:32;2.55;;;1.05;;
78426;SDS011;67722;50.204;8.570;2023-05-10T08:47:00;3.60;;;1.20;;
78426;SDS011;67722;50.204;8.570;2023-05-10T08:49:29;4.28;;;1.20;;
78426;SDS011;67722;50.204;8.570;2023-05-10T08:51:56;1.70;;;0.80;;
78426;SDS011;67722;50.204;8.570;2023-05-10T08:54:22;2.50;;;0.98;;
78426;SDS011;67722;50.204;8.570;2023-05-10T08:56:48;1.98;;;0.80;;
78426;SDS011;67722;50.204;8.570;2023-05-10T08:59:13;2.70;;;0.80;;
78426;SDS011;67722;50.204;8.570;2023-05-10T09:01:39;1.77;;;0.93;;
78426;SDS011;67722;50.204;8.570;2023-05-10T09:04:05;2.78;;;0.77;;
78426;SDS011;67722;50.204;8.570;2023-05-10T09:06:30;3.45;;;1.17;;
78426;SDS011;67722;50.204;8.570;2023-05-10T09:08:57;2.85;;;0.98;;
78426;SDS011;67722;50.204;8.570;2023-05-10T09:11:22;5.47;;;1.00;;
78426;SDS011;67722;50.204;8.570;2023-05-10T09:13:48;1.65;;;0.90;;
78426;SDS011;67722;50.204;8.570;2023-05-10T09:16:15;3.90;;;1.23;;
78426;SDS011;67722;50.204;8.570;2023-05-10T09:18:41;3.08;;;0.70;;
78426;SDS011;67722;50.204;8.570;2023-05-10T09:21:06;2.77;;;0.60;;
78426;SDS011;67722;50.204;8.570;2023-05-10T09:23:31;1.33;;;0.77;;
78426;SDS011;67722;50.204;8.570;2023-05-10T09:26:06;6.28;;;0.80;;
78426;SDS011;67722;50.204;8.570;2023-05-10T09:28:49;3.03;;;0.80;;
78426;SDS011;67722;50.204;8.570;2023-05-10T09:31:15;1.15;;;0.65;;
78426;SDS011;67722;50.204;8.570;2023-05-10T09:33:44;1.58;;;0.80;;
78426;SDS011;67722;50.204;8.570;2023-05-10T09:36:11;2.10;;;0.90;;
78426;SDS011;67722;50.204;8.570;2023-05-10T09:38:46;2.75;;;1.02;;
78426;SDS011;67722;50.204;8.570;2023-05-10T09:41:19;1.60;;;0.90;;
78426;SDS011;67722;50.204;8.570;2023-05-10T09:43:45;1.23;;;0.60;;
78426;SDS011;67722;50.204;8.570;2023-05-10T09:46:11;1.02;;;0.70;;
78426;SDS011;67722;50.204;8.570;2023-05-10T09:48:44;2.83;;;0.63;;
78426;SDS011;67722;50.204;8.570;2023-05-10T09:51:18;1.45;;;0.70;;
78426;SDS011;67722;50.204;8.570;2023-05-10T09:53:47;2.38;;;1.00;;
78426;SDS011;67722;50.204;8.570;2023-05-10T09:56:13;3.17;;;0.93;;
78426;SDS011;67722;50.204;8.570;2023-05-10T09:58:43;4.03;;;0.85;;
78426;SDS011;67722;50.204;8.570;2023-05-10T10:01:11;1.42;;;0.35;;
78426;SDS011;67722;50.204;8.570;2023-05-10T10:03:42;2.08;;;1.02;;
78426;SDS011;67722;50.204;8.570;2023-05-10T10:06:08;2.08;;;0.50;;
78426;SDS011;67722;50.204;8.570;2023-05-10T10:08:34;6.85;;;0.50;;
78426;SDS011;67722;50.204;8.570;2023-05-10T10:10:59;1.70;;;0.60;;
78426;SDS011;67722;50.204;8.570;2023-05-10T10:13:24;1.20;;;0.70;;
78426;SDS011;67722;50.204;8.570;2023-05-10T10:15:50;2.15;;;0.60;;
78426;SDS011;67722;50.204;8.570;2023-05-10T10:18:17;2.53;;;0.52;;
78426;SDS011;67722;50.204;8.570;2023-05-10T10:20:42;2.13;;;0.80;;
78426;SDS011;67722;50.204;8.570;2023-05-10T10:23:08;2.20;;;0.43;;
78426;SDS011;67722;50.204;8.570;2023-05-10T10:25:33;0.80;;;0.30;;
78426;SDS011;67722;50.204;8.570;2023-05-10T10:35:39;2.70;;;1.08;;
78426;SDS011;67722;50.204;8.570;2023-05-10T10:38:07;3.25;;;1.05;;
78426;SDS011;67722;50.204;8.570;2023-05-10T10:40:33;1.88;;;1.13;;
78426;SDS011;67722;50.204;8.570;2023-05-10T10:43:20;4.45;;;1.58;;
78426;SDS011;67722;50.204;8.570;2023-05-10T10:48:48;4.95;;;1.27;;
78426;SDS011;67722;50.204;8.570;2023-05-10T10:51:16;3.55;;;1.05;;
78426;SDS011;67722;50.204;8.570;2023-05-10T10:53:42;2.88;;;1.05;;
78426;SDS011;67722;50.204;8.570;2023-05-10T10:56:11;2.83;;;1.33;;
78426;SDS011;67722;50.204;8.570;2023-05-10T10:58:38;3.08;;;1.30;;
78426;SDS011;67722;50.204;8.570;2023-05-10T11:01:15;5.07;;;1.35;;
78426;SDS011;67722;50.204;8.570;2023-05-10T11:03:41;7.00;;;0.90;;
78426;SDS011;67722;50.204;8.570;2023-05-10T11:06:30;3.80;;;0.90;;
78426;SDS011;67722;50.204;8.570;2023-05-10T11:08:56;1.98;;;0.55;;
78426;SDS011;67722;50.204;8.570;2023-05-10T11:11:22;4.05;;;0.65;;
78426;SDS011;67722;50.204;8.570;2023-05-10T11:13:47;1.75;;;0.68;;
78426;SDS011;67722;50.204;8.570;2023-05-10T11:16:14;4.05;;;0.70;;
78426;SDS011;67722;50.204;8.570;2023-05-10T11:21:18;2.45;;;0.82;;
78426;SDS011;67722;50.204;8.570;2023-05-10T11:23:47;2.30;;;1.03;;
78426;SDS011;67722;50.204;8.570;2023-05-10T11:26:16;10.35;;;1.35;;
78426;SDS011;67722;50.204;8.570;2023-05-10T11:28:45;3.33;;;0.73;;
78426;SDS011;67722;50.204;8.570;2023-05-10T11:31:15;1.42;;;0.43;;
78426;SDS011;67722;50.204;8.570;2023-05-10T11:33:51;3.47;;;1.02;;
78426;SDS011;67722;50.204;8.570;2023-05-10T11:36:18;4.38;;;0.70;;
78426;SDS011;67722;50.204;8.570;2023-05-10T11:38:44;1.23;;;0.30;;
78426;SDS011;67722;50.204;8.570;2023-05-10T11:41:10;1.25;;;0.45;;
78426;SDS011;67722;50.204;8.570;2023-05-10T11:43:37;0.88;;;0.20;;
78426;SDS011;67722;50.204;8.570;2023-05-10T11:46:04;1.95;;;0.50;;
78426;SDS011;67722;50.204;8.570;2023-05-10T11:48:31;2.53;;;0.80;;
78426;SDS011;67722;50.204;8.570;2023-05-10T11:50:56;1.08;;;0.50;;
78426;SDS011;67722;50.204;8.570;2023-05-10T11:53:22;1.00;;;0.40;;
78426;SDS011;67722;50.204;8.570;2023-05-10T11:55:50;1.33;;;0.50;;
78426;SDS011;67722;50.204;8.570;2023-05-10T11:58:15;0.50;;;0.20;;
78426;SDS011;67722;50.204;8.570;2023-05-10T12:00:43;1.95;;;0.50;;
78426;SDS011;67722;50.204;8.570;2023-05-10T12:03:08;0.80;;;0.35;;
78426;SDS011;67722;50.204;8.570;2023-05-10T12:05:35;1.80;;;0.30;;
78426;SDS011;67722;50.204;8.570;2023-05-10T12:08:13;1.38;;;0.38;;
78426;SDS011;67722;50.204;8.570;2023-05-10T12:10:40;1.58;;;0.20;;
78426;SDS011;67722;50.204;8.570;2023-05-10T12:13:05;0.57;;;0.30;;
78426;SDS011;67722;50.204;8.570;2023-05-10T12:15:32;2.45;;;0.28;;
78426;SDS011;67722;50.204;8.570;2023-05-10T12:17:57;1.07;;;0.30;;
78426;SDS011;67722;50.204;8.570;2023-05-10T12:20:23;1.83;;;0.68;;
78426;SDS011;67722;50.204;8.570;2023-05-10T12:25:14;1.40;;;0.30;;
78426;SDS011;67722;50.204;8.570;2023-05-10T12:27:40;1.52;;;0.40;;
78426;SDS011;67722;50.204;8.570;2023-05-10T12:30:06;1.23;;;0.20;;
78426;SDS011;67722;50.204;8.570;2023-05-10T12:32:41;1.13;;;0.30;;
78426;SDS011;67722;50.204;8.570;2023-05-10T12:35:08;0.40;;;0.32;;
78426;SDS011;67722;50.204;8.570;2023-05-10T12:37:34;0.93;;;0.32;;
78426;SDS011;67722;50.204;8.570;2023-05-10T12:40:04;0.65;;;0.32;;
78426;SDS011;67722;50.204;8.570;2023-05-10T12:42:30;1.95;;;0.35;;
78426;SDS011;67722;50.204;8.570;2023-05-10T12:44:57;1.77;;;0.30;;
78426;SDS011;67722;50.204;8.570;2023-05-10T12:47:22;1.35;;;0.22;;
78426;SDS011;67722;50.204;8.570;2023-05-10T12:49:47;0.60;;;0.27;;
78426;SDS011;67722;50.204;8.570;2023-05-10T12:52:13;0.60;;;0.40;;
78426;SDS011;67722;50.204;8.570;2023-05-10T12:54:38;1.63;;;0.30;;
78426;SDS011;67722;50.204;8.570;2023-05-10T12:57:03;3.05;;;0.40;;
78426;SDS011;67722;50.204;8.570;2023-05-10T12:59:29;0.52;;;0.20;;
78426;SDS011;67722;50.204;8.570;2023-05-10T13:01:54;1.67;;;0.50;;
78426;SDS011;67722;50.204;8.570;2023-05-10T13:04:20;0.50;;;0.15;;
78426;SDS011;67722;50.204;8.570;2023-05-10T13:06:45;0.93;;;0.17;;
78426;SDS011;67722;50.204;8.570;2023-05-10T13:09:10;0.63;;;0.10;;
78426;SDS011;67722;50.204;8.570;2023-05-10T13:11:36;1.85;;;0.20;;
78426;SDS011;67722;50.204;8.570;2023-05-10T13:14:01;0.20;;;0.10;;
78426;SDS011;67722;50.204;8.570;2023-05-10T13:16:28;0.50;;;0.10;;
78426;SDS011;67722;50.204;8.570;2023-05-10T13:18:53;3.90;;;0.43;;
78426;SDS011;67722;50.204;8.570;2023-05-10T13:21:18;0.60;;;0.10;;
78426;SDS011;67722;50.204;8.570;2023-05-10T13:23:44;0.45;;;0.20;;
78426;SDS011;67722;50.204;8.570;2023-05-10T13:26:09;2.85;;;0.45;;
78426;SDS011;67722;50.204;8.570;2023-05-10T13:28:35;1.77;;;0.47;;
78426;SDS011;67722;50.204;8.570;2023-05-10T13:31:00;1.60;;;0.20;;
78426;SDS011;67722;50.204;8.570;2023-05-10T13:33:26;1.02;;;0.40;;
78426;SDS011;67722;50.204;8.570;2023-05-10T13:35:51;0.67;;;0.37;;
78426;SDS011;67722;50.204;8.570;2023-05-10T13:38:16;1.45;;;0.30;;
78426;SDS011;67722;50.204;8.570;2023-05-10T13:40:42;1.13;;;0.30;;
78426;SDS011;67722;50.204;8.570;2023-05-10T13:43:07;0.90;;;0.40;;
78426;SDS011;67722;50.204;8.570;2023-05-10T13:45:32;0.83;;;0.20;;
78426;SDS011;67722;50.204;8.570;2023-05-10T13:47:58;2.47;;;0.20;;
78426;SDS011;67722;50.204;8.570;2023-05-10T13:50:24;0.93;;;0.30;;
78426;SDS011;67722;50.204;8.570;2023-05-10T13:52:49;0.68;;;0.30;;
78426;SDS011;67722;50.204;8.570;2023-05-10T13:55:15;2.63;;;0.60;;
78426;SDS011;67722;50.204;8.570;2023-05-10T13:57:40;3.80;;;0.50;;
78426;SDS011;67722;50.204;8.570;2023-05-10T14:00:06;1.08;;;0.30;;
78426;SDS011;67722;50.204;8.570;2023-05-10T14:02:32;0.52;;;0.40;;
78426;SDS011;67722;50.204;8.570;2023-05-10T14:04:58;0.40;;;0.20;;
78426;SDS011;67722;50.204;8.570;2023-05-10T14:07:23;0.63;;;0.40;;
78426;SDS011;67722;50.204;8.570;2023-05-10T14:09:48;3.47;;;0.50;;
78426;SDS011;67722;50.204;8.570;2023-05-10T14:12:14;1.77;;;0.20;;
78426;SDS011;67722;50.204;8.570;2023-05-10T14:14:39;0.77;;;0.20;;
78426;SDS011;67722;50.204;8.570;2023-05-10T14:17:05;1.80;;;0.38;;
78426;SDS011;67722;50.204;8.570;2023-05-10T14:19:30;1.70;;;0.20;;
78426;SDS011;67722;50.204;8.570;2023-05-10T14:21:57;0.88;;;0.30;;
78426;SDS011;67722;50.204;8.570;2023-05-10T14:24:22;0.60;;;0.40;;
78426;SDS011;67722;50.204;8.570;2023-05-10T14:26:48;0.60;;;0.20;;
78426;SDS011;67722;50.204;8.570;2023-05-10T14:29:13;1.35;;;0.40;;
78426;SDS011;67722;50.204;8.570;2023-05-10T14:31:39;0.80;;;0.20;;
78426;SDS011;67722;50.204;8.570;2023-05-10T14:34:05;1.70;;;0.28;;
78426;SDS011;67722;50.204;8.570;2023-05-10T14:36:30;0.40;;;0.20;;
78426;SDS011;67722;50.204;8.570;2023-05-10T14:38:56;1.38;;;0.17;;
78426;SDS011;67722;50.204;8.570;2023-05-10T14:41:22;1.17;;;0.10;;
78426;SDS011;67722;50.204;8.570;2023-05-10T14:43:47;1.75;;;0.20;;
78426;SDS011;67722;50.204;8.570;2023-05-10T14:46:13;0.80;;;0.20;;
78426;SDS011;67722;50.204;8.570;2023-05-10T14:48:38;0.73;;;0.10;;
78426;SDS011;67722;50.204;8.570;2023-05-10T14:51:03;0.40;;;0.20;;
78426;SDS011;67722;50.204;8.570;2023-05-10T14:53:29;1.63;;;0.10;;
78426;SDS011;67722;50.204;8.570;2023-05-10T14:55:54;0.20;;;0.10;;
78426;SDS011;67722;50.204;8.570;2023-05-10T14:58:19;0.30;;;0.10;;
78426;SDS011;67722;50.204;8.570;2023-05-10T15:00:45;1.60;;;0.20;;
78426;SDS011;67722;50.204;8.570;2023-05-10T15:03:11;2.25;;;0.20;;
78426;SDS011;67722;50.204;8.570;2023-05-10T15:05:36;3.13;;;0.10;;
78426;SDS011;67722;50.204;8.570;2023-05-10T15:08:02;0.43;;;0.10;;
78426;SDS011;67722;50.204;8.570;2023-05-10T15:10:28;1.20;;;0.15;;
78426;SDS011;67722;50.204;8.570;2023-05-10T15:12:53;1.95;;;0.22;;
78426;SDS011;67722;50.204;8.570;2023-05-10T15:15:19;0.50;;;0.20;;
78426;SDS011;67722;50.204;8.570;2023-05-10T15:17:44;0.90;;;0.10;;
78426;SDS011;67722;50.204;8.570;2023-05-10T15:20:10;0.30;;;0.10;;
78426;SDS011;67722;50.204;8.570;2023-05-10T15:22:36;1.85;;;0.10;;
78426;SDS011;67722;50.204;8.570;2023-05-10T15:25:01;0.63;;;0.20;;
78426;SDS011;67722;50.204;8.570;2023-05-10T15:27:27;2.75;;;0.20;;